• Join FlightAware (Why Join?)
  • Login
  • US Flag 
06:14PM EDT


 

Airport Tracker/Info


-or-


 

Live Flight TrackerFlight Track Log ✈ LOG6844 ✈ 15-Oct-2013 ✈ EGEC / CAL - EGPF / GLA

Flight Track Log - Related Links

Times and Time Zones

All times are in EDT time to prevent confusion due to time zone crossing. See the LOG6844 flight status page for this flight to view local times or setup timezone preferences in your user account.

Time Position Orientation Groundspeed Altitude Reporting Facility
EDT Latitude Longitude Course Direction KTS MPH feet Rate Location/Type
05:01AM 55.4255 -5.6146 86° East 148 170 2,300  Level FlightAware UK
05:01AM 55.4262 -5.5977 86° East 148 170 3,000 1,980 Climbing FlightAware UK
05:01AM 55.4355 -5.5855 37° Northeast 150 173 3,500 1,980 Climbing FlightAware UK
05:02AM 55.4462 -5.5713 37° Northeast 152 175 4,200 2,160 Climbing FlightAware UK
05:02AM 55.4556 -5.5579 39° Northeast 154 177 4,800 1,980 Climbing FlightAware UK
05:02AM 55.4650 -5.5438 41° Northeast 156 180 5,400 2,160 Climbing FlightAware UK
05:02AM 55.4753 -5.5313 35° Northeast 156 180 6,100 1,500 Climbing FlightAware UK
05:03AM 55.4849 -5.5160 42° Northeast 180 207 6,300 960 Climbing FlightAware UK
05:03AM 55.4962 -5.4987 41° Northeast 192 221 6,700 1,620 Climbing FlightAware UK
05:03AM 55.5074 -5.4823 40° Northeast 188 216 7,300 1,620 Climbing FlightAware UK
05:04AM 55.5185 -5.4655 40° Northeast 192 221 7,700 1,620 Climbing FlightAware UK
05:04AM 55.5301 -5.4487 39° Northeast 194 223 8,300 1,800 Climbing FlightAware UK
05:04AM 55.5415 -5.4324 39° Northeast 192 221 8,800 1,140 Climbing FlightAware UK
05:05AM 55.5529 -5.4151 41° Northeast 206 237 9,000 240 Climbing FlightAware UK
05:05AM 55.5757 -5.3810 40° Northeast 234 269 9,000  Level FlightAware UK
05:05AM 55.5954 -5.3516 40° Northeast 252 290 9,000  Level FlightAware UK
05:06AM 55.6160 -5.3210 40° Northeast 262 302 9,000  Level FlightAware UK
05:06AM 55.6426 -5.2815 40° Northeast 268 308 9,000 -420 Level FlightAware UK
05:07AM 55.6588 -5.2575 40° Northeast 268 308 8,700 -840 Descending FlightAware UK
05:07AM 55.6747 -5.2338 40° Northeast 254 292 8,500 -840 Descending FlightAware UK
05:07AM 55.6897 -5.2111 40° Northeast 252 290 8,200 -840 Descending FlightAware UK
05:08AM 55.7046 -5.1886 40° Northeast 250 288 8,000 -840 Descending FlightAware UK
05:08AM 55.7092 -5.1562 76° East 246 283 7,700 -840 Descending FlightAware UK
05:08AM 55.7096 -5.1226 89° East 244 281 7,500 -720 Descending FlightAware UK
05:08AM 55.7090 -5.0900 92° East 242 278 7,300 -840 Descending FlightAware UK
05:09AM 55.7084 -5.0572 92° East 240 276 7,000 -1,020 Descending FlightAware UK
05:09AM 55.7079 -5.0245 91° East 236 272 6,700 -1,200 Descending FlightAware UK
05:09AM 55.7082 -4.9829 89° East 224 258 6,200 -1,200 Descending FlightAware UK
05:10AM 55.7086 -4.9511 89° East 230 265 5,900 -840 Descending FlightAware UK
05:10AM 55.7089 -4.9193 89° East 226 260 5,700 -840 Descending FlightAware UK
05:10AM 55.7089 -4.8870 90° East 232 267 5,400 -1,020 Descending FlightAware UK
05:11AM 55.7129 -4.8342 82° East 230 265 4,900 -1,140 Descending FlightAware UK
05:11AM 55.7167 -4.7918 81° East 228 262 4,400 -1,140 Descending FlightAware UK
05:12AM 55.7203 -4.7544 80° East 206 237 4,000 -1,020 Descending FlightAware UK
05:12AM 55.7229 -4.7278 80° East 204 235 3,700 -840 Descending FlightAware UK
05:12AM 55.7318 -4.7042 56° Northeast 210 242 3,500 -600 Descending FlightAware UK
05:13AM 55.7447 -4.6722 54° Northeast 214 246 3,300 -600 Descending FlightAware UK
05:13AM 55.7564 -4.6505 46° Northeast 216 249 3,100 -720 Descending FlightAware UK
05:13AM 55.7669 -4.6301 48° Northeast 196 226 2,900 -900 Descending FlightAware UK
05:14AM 55.7823 -4.6005 47° Northeast 1 1 2,400 -900 Descending FlightAware UK
05:14AM 55.7908 -4.5846 46° Northeast 1 1 2,200 -780 Descending FlightAware UK
05:15AM 55.8068 -4.5547 46° Northeast 1 1 1,700 -780 Descending FlightAware UK
05:15AM 55.8152 -4.5388 47° Northeast 1 1 1,500 -840 Descending FlightAware UK
05:15AM 55.8237 -4.5232 46° Northeast 1 1 1,200 -840 Descending FlightAware UK
05:16AM 55.8403 -4.4922 46° Northeast 1 1 700 -660 Descending FlightAware UK
05:17AM 55.8565 -4.4621 46° Northeast 1 1 300 -600 Descending FlightAware UK
05:19AM 55.8719 -4.4331 47° Northeast  Level Estimated
05:26AM 55.8719 -4.4331 29° Northeast  Level Estimated
05:27AM 55.8719 -4.4331 29° Northeast  Level Estimated
05:28AM 55.8719 -4.4331 29° Northeast  Level Estimated
05:29AM 55.8719 -4.4331 29° Northeast  Level Estimated
05:30AM 55.8719 -4.4331 29° Northeast  Level Estimated
05:31AM 55.8719 -4.4331 29° Northeast  Level Estimated
05:32AM 55.8719 -4.4331 29° Northeast  Level Estimated
05:33AM 55.8719 -4.4331 29° Northeast  Level Estimated